TimeCAT,TemperatureF,Dew PointF,Humidity,Sea Level PressureIn,VisibilityMPH,Wind Direction,Wind SpeedMPH,Gust SpeedMPH,PrecipitationIn,Events,Conditions,WindDirDegrees,DateUTC
12:00 AM,71.6,32.0,23,30.06,-9999.0,South,1.2,-,N/A,,Clear,180,2012-11-06 22:00:00
1:00 AM,66.2,33.8,30,30.06,-9999.0,SSE,1.2,-,N/A,,Clear,150,2012-11-06 23:00:00
4:00 AM,66.2,35.6,32,30.06,-9999.0,SSE,4.6,-,N/A,,Clear,160,2012-11-07 02:00:00
5:00 AM,64.4,33.8,32,30.09,-9999.0,SSE,3.5,-,N/A,,Clear,150,2012-11-07 03:00:00
6:00 AM,66.2,35.6,32,30.09,-9999.0,ESE,4.6,-,N/A,,Clear,120,2012-11-07 04:00:00
7:00 AM,73.4,37.4,27,30.12,5.6,SE,6.9,-,N/A,,Haze,130,2012-11-07 05:00:00
8:00 AM,78,36,13,,6,East,4.6,,,,Haze,100,2012-11-07 06:00:00
8:00 AM,78.8,37.4,23,30.12,5.6,East,4.6,-,N/A,,Haze,100,2012-11-07 06:00:00
9:00 AM,84.2,41.0,22,30.12,5.6,East,8.1,-,N/A,,Haze,90,2012-11-07 07:00:00
10:00 AM,87.8,37.4,17,30.12,-9999.0,NE,13.8,-,N/A,,Clear,50,2012-11-07 08:00:00
11:00 AM,91.4,35.6,14,30.09,-9999.0,East,10.4,-,N/A,,Clear,100,2012-11-07 09:00:00
12:00 PM,93.2,37.4,14,30.06,-9999.0,East,11.5,-,N/A,,Clear,80,2012-11-07 10:00:00
1:00 PM,95.0,33.8,12,30.04,-9999.0,ENE,8.1,-,N/A,,Clear,70,2012-11-07 11:00:00
2:00 PM,96,36,6,,6,East,8.1,,,,Haze,90,2012-11-07 12:00:00
5:00 PM,95.0,23.0,8,29.98,-9999.0,East,6.9,-,N/A,,Clear,90,2012-11-07 15:00:00
8:00 PM,77,30,9,,19,SE,4.6,,,,,140,2012-11-07 18:00:00
8:00 PM,77.0,30.2,18,30.01,-9999.0,SE,4.6,-,N/A,,Clear,140,2012-11-07 18:00:00
9:00 PM,73.4,30.2,20,30.04,-9999.0,Calm,Calm,-,N/A,,Clear,0,2012-11-07 19:00:00
10:00 PM,68.0,35.6,30,30.04,-9999.0,Calm,Calm,-,N/A,,Clear,0,2012-11-07 20:00:00
11:00 PM,66.2,32.0,28,30.04,-9999.0,Calm,Calm,-,N/A,,Clear,0,2012-11-07 21:00:00